Toonerville, Kentucky
Current Conditions -  °F | °C
As of 8:35 AM on Friday 19 Dec 2014 (Local Time) from KPBX Reporting Station
Overcast Overcast  
Wind Chill: 28°   Ceiling: 1500
Heat Index: 28°   Visibility: 10mi
Dew Point: 24°   Wind: 3mph
Humidity: 82%   Direction: 10°N
Pressure: 30.23"   Gusts: NA
Location:  37.3644°N, 82.2792°W
Report Text: KPBX 191335Z AUTO 01003KT 10SM OVC015 M02/M05 A3023 RMK AO2 T10201047
Loading
Personal Weather Stations






























Interactive Weather Map New forecast layout! Learn more

10-Day Weather Forecast

Advertisements
Track Severe Weather on mobile